createdAt,value
2019-06-08T00:00:33.598Z,21.05
2019-06-08T00:05:36.955Z,23.75
2019-06-08T00:10:40.073Z,28.65
2019-06-08T00:15:43.279Z,24.57
2019-06-08T00:20:46.434Z,24.23
2019-06-08T00:25:49.540Z,21.00
2019-06-08T00:30:52.994Z,18.42
2019-06-08T00:35:56.145Z,27.75
2019-06-08T00:41:00.537Z,23.38
2019-06-08T00:46:05.061Z,25.15
2019-06-08T00:51:08.877Z,21.68
2019-06-08T00:56:11.958Z,21.50
2019-06-08T01:01:15.462Z,20.45
2019-06-08T01:06:21.025Z,27.40
2019-06-08T01:11:24.794Z,25.05
2019-06-08T01:16:29.254Z,25.35
2019-06-08T01:21:34.470Z,25.35
2019-06-08T01:26:37.568Z,25.43
2019-06-08T01:31:42.136Z,20.82
2019-06-08T01:36:45.514Z,20.77
2019-06-08T01:41:52.235Z,22.97
2019-06-08T01:46:58.037Z,23.12
2019-06-08T01:52:02.281Z,24.65
2019-06-08T01:57:05.452Z,24.15
2019-06-08T02:02:08.607Z,24.00
2019-06-08T02:07:13.082Z,20.77
2019-06-08T02:12:16.375Z,23.65
2019-06-08T02:17:19.487Z,24.47
2019-06-08T02:22:22.640Z,24.52
2019-06-08T02:27:27.196Z,23.38
2019-06-08T02:32:31.578Z,24.27
2019-06-08T02:37:37.737Z,24.92
2019-06-08T02:42:40.554Z,24.63
2019-06-08T02:47:43.658Z,25.72
2019-06-08T02:52:50.388Z,19.92
2019-06-08T02:57:54.141Z,23.55
2019-06-08T03:03:01.219Z,21.97
2019-06-08T03:08:06.697Z,27.10
2019-06-08T03:13:10.480Z,21.73
2019-06-08T03:18:13.488Z,24.98
2019-06-08T03:23:17.666Z,28.65
2019-06-08T03:28:21.062Z,25.72
2019-06-08T03:33:24.386Z,25.12
2019-06-08T03:38:27.633Z,28.60
2019-06-08T03:43:30.775Z,23.40
2019-06-08T03:48:35.016Z,25.43
2019-06-08T03:53:42.022Z,28.02
2019-06-08T03:58:47.979Z,29.40
2019-06-08T04:08:53.625Z,27.60
2019-06-08T04:13:57.975Z,32.55
2019-06-08T04:19:01.207Z,31.17
2019-06-08T04:24:04.348Z,28.92
2019-06-08T04:29:07.380Z,33.05
2019-06-08T04:34:11.757Z,31.95
2019-06-08T04:39:14.928Z,28.40
2019-06-08T04:44:19.374Z,28.23
2019-06-08T04:49:25.132Z,34.30
2019-06-08T04:54:30.076Z,31.40
2019-06-08T04:59:33.126Z,27.62
2019-06-08T05:04:36.253Z,28.55
2019-06-08T05:09:40.991Z,29.80
2019-06-08T05:14:45.480Z,33.20
2019-06-08T05:19:50.517Z,29.20
2019-06-08T05:24:53.952Z,31.17
2019-06-08T05:29:58.388Z,26.60
2019-06-08T05:35:01.554Z,28.07
2019-06-08T05:40:05.286Z,27.77
2019-06-08T05:45:09.094Z,30.80
2019-06-08T05:50:12.592Z,30.25
2019-06-08T05:55:18.810Z,25.32
2019-06-08T06:00:22.392Z,24.30
2019-06-08T06:05:25.917Z,20.27
2019-06-08T06:10:30.248Z,16.00
2019-06-08T06:15:33.447Z,22.20
2019-06-08T06:20:36.701Z,14.98
2019-06-08T06:25:41.299Z,17.35
2019-06-08T06:30:46.561Z,16.40
2019-06-08T06:35:52.012Z,17.47
2019-06-08T06:40:54.536Z,15.10
2019-06-08T06:45:58.905Z,13.20
2019-06-08T06:51:02.650Z,14.23
2019-06-08T06:56:05.984Z,17.43
2019-06-08T07:01:09.181Z,13.38
2019-06-08T07:06:12.639Z,10.95
2019-06-08T07:11:15.634Z,12.03
2019-06-08T07:16:19.456Z,8.35
2019-06-08T07:21:23.061Z,11.85
2019-06-08T07:26:26.285Z,12.70
2019-06-08T07:31:29.432Z,9.95
2019-06-08T07:36:32.838Z,11.63
2019-06-08T07:41:36.018Z,11.18
2019-06-08T07:46:40.235Z,8.83
2019-06-08T07:51:57.656Z,10.25
2019-06-08T07:56:50.131Z,10.27
2019-06-08T08:01:56.171Z,10.23
2019-06-08T08:07:00.898Z,11.20
2019-06-08T08:12:04.257Z,9.93
2019-06-08T08:17:07.602Z,10.18
2019-06-08T08:22:22.043Z,8.85
2019-06-08T08:32:20.310Z,8.23
2019-06-08T08:37:23.556Z,8.90
2019-06-08T08:42:27.051Z,6.22
2019-06-08T08:47:31.940Z,8.57
2019-06-08T08:52:38.059Z,6.83
2019-06-08T08:57:41.677Z,9.50
2019-06-08T09:02:45.806Z,7.72
2019-06-08T09:07:52.544Z,13.08
2019-06-08T09:13:01.709Z,7.03
2019-06-08T09:18:04.457Z,5.97
2019-06-08T09:23:15.656Z,9.90
2019-06-08T09:28:12.580Z,9.78
2019-06-08T09:33:18.604Z,7.65
2019-06-08T09:38:20.940Z,11.45
2019-06-08T09:43:24.393Z,6.10
2019-06-08T09:48:28.797Z,9.23
2019-06-08T09:53:37.665Z,7.63
2019-06-08T10:03:42.509Z,5.95
2019-06-08T10:08:47.929Z,6.70
2019-06-08T10:13:50.617Z,6.70
2019-06-08T10:18:54.971Z,5.90
2019-06-08T10:24:01.039Z,8.33
2019-06-08T10:29:05.238Z,8.07
2019-06-08T10:34:11.080Z,7.35
2019-06-08T10:39:13.614Z,7.47
2019-06-08T10:44:18.271Z,6.25
2019-06-08T10:49:21.587Z,7.50
2019-06-08T10:54:24.729Z,9.80
2019-06-08T10:59:28.912Z,9.90
2019-06-08T11:04:32.450Z,7.42
2019-06-08T11:09:35.717Z,8.63
2019-06-08T11:14:40.745Z,9.35
2019-06-08T11:19:44.102Z,7.28
2019-06-08T11:24:48.536Z,9.58
2019-06-08T11:29:51.696Z,8.33
2019-06-08T11:34:54.688Z,6.40
2019-06-08T11:39:58.126Z,7.50
2019-06-08T11:45:04.439Z,8.58
2019-06-08T11:50:12.970Z,7.20
2019-06-08T11:55:14.704Z,6.85
2019-06-08T12:00:48.921Z,5.72
2019-06-08T12:05:52.286Z,9.35
2019-06-08T12:11:01.272Z,6.90
2019-06-08T12:16:01.201Z,9.45
2019-06-08T12:21:05.499Z,7.70
2019-06-08T12:26:10.125Z,7.70
2019-06-08T12:31:17.671Z,6.53
2019-06-08T12:36:20.552Z,7.35
2019-06-08T12:41:23.327Z,9.50
2019-06-08T12:46:27.997Z,10.95
2019-06-08T12:51:31.361Z,6.67
2019-06-08T12:56:37.731Z,9.25
2019-06-08T13:01:42.307Z,6.95
2019-06-08T13:06:45.396Z,12.00
2019-06-08T13:11:50.715Z,10.43
2019-06-08T13:21:58.267Z,10.20
2019-06-08T13:27:01.624Z,10.17
2019-06-08T13:32:04.700Z,9.25
2019-06-08T13:37:08.445Z,9.55
2019-06-08T13:42:13.108Z,7.53
2019-06-08T13:47:18.621Z,9.18
2019-06-08T13:52:23.576Z,13.03
2019-06-08T13:57:26.733Z,8.83
2019-06-08T14:02:31.752Z,16.20
2019-06-08T14:07:37.887Z,14.15
2019-06-08T14:12:40.461Z,18.90
2019-06-08T14:17:43.641Z,16.13
2019-06-08T14:22:50.410Z,14.20
2019-06-08T14:27:52.314Z,22.22
2019-06-08T14:32:57.662Z,15.48
2019-06-08T14:38:01.283Z,23.20
2019-06-08T14:43:04.436Z,17.20
2019-06-08T14:48:07.612Z,16.90
2019-06-08T14:53:11.080Z,18.65
2019-06-08T14:58:14.651Z,19.60
2019-06-08T15:03:18.377Z,17.30
2019-06-08T15:08:23.634Z,19.12
2019-06-08T15:13:28.580Z,17.25
2019-06-08T15:18:31.932Z,14.17
2019-06-08T15:23:35.814Z,12.63
2019-06-08T15:28:39.018Z,14.55
2019-06-08T15:33:42.092Z,16.82
2019-06-08T15:38:47.844Z,12.53
2019-06-08T15:48:52.665Z,12.05
2019-06-08T15:53:57.874Z,9.83
2019-06-08T15:59:00.953Z,17.20
2019-06-08T16:04:04.310Z,11.30
2019-06-08T16:09:08.727Z,11.80
2019-06-08T16:14:11.802Z,8.23
2019-06-08T16:19:14.937Z,11.33
2019-06-08T16:24:18.316Z,5.92
2019-06-08T16:29:21.412Z,9.43
2019-06-08T16:34:24.768Z,20.15
2019-06-08T16:39:28.640Z,11.38
2019-06-08T16:44:32.357Z,5.72
2019-06-08T16:49:35.996Z,7.22
2019-06-08T16:54:39.232Z,17.48
2019-06-08T16:59:42.638Z,8.58
2019-06-08T17:04:48.875Z,11.45
2019-06-08T17:14:54.569Z,6.53
2019-06-08T17:19:57.624Z,11.97
2019-06-08T17:25:00.718Z,6.08
2019-06-08T17:30:08.386Z,5.37
2019-06-08T17:35:10.134Z,3.72
2019-06-08T17:40:13.714Z,9.73
2019-06-08T17:45:17.119Z,14.33
2019-06-08T17:50:20.302Z,5.77
2019-06-08T17:55:23.401Z,8.65
2019-06-08T18:00:26.609Z,6.53
2019-06-08T18:05:29.945Z,6.58
2019-06-08T18:10:33.785Z,7.47
2019-06-08T18:15:39.094Z,9.68
2019-06-08T18:20:42.474Z,13.70
2019-06-08T18:25:48.086Z,7.67
2019-06-08T18:30:51.496Z,6.97
2019-06-08T18:35:54.549Z,5.12
2019-06-08T18:40:57.586Z,4.28
2019-06-08T18:46:02.660Z,3.27
2019-06-08T18:51:08.331Z,5.10
2019-06-08T18:56:11.500Z,20.05
2019-06-08T19:01:14.524Z,5.95
2019-06-08T19:06:18.837Z,8.65
2019-06-08T19:11:22.557Z,9.20
2019-06-08T19:16:28.187Z,6.42
2019-06-08T19:21:30.779Z,6.80
2019-06-08T19:26:33.955Z,5.15
2019-06-08T19:31:39.003Z,6.05
2019-06-08T19:36:43.132Z,5.10
2019-06-08T19:41:50.429Z,8.98
2019-06-08T19:46:53.209Z,4.40
2019-06-08T19:51:58.054Z,5.95
2019-06-08T19:57:01.380Z,5.00
2019-06-08T20:02:04.486Z,7.58
2019-06-08T20:07:08.703Z,6.97
2019-06-08T20:12:12.116Z,4.72
2019-06-08T20:17:17.249Z,6.20
2019-06-08T20:22:20.176Z,5.15
2019-06-08T20:27:23.825Z,6.47
2019-06-08T20:32:28.193Z,8.03
2019-06-08T20:37:31.460Z,10.72
2019-06-08T20:42:34.729Z,10.88
2019-06-08T20:47:39.152Z,8.28
2019-06-08T20:52:42.455Z,7.60
2019-06-08T20:57:47.751Z,8.48
2019-06-08T21:02:51.971Z,7.72
2019-06-08T21:07:58.871Z,9.30
2019-06-08T21:13:00.858Z,8.35
2019-06-08T21:18:03.961Z,9.28
2019-06-08T21:23:08.168Z,8.15
2019-06-08T21:28:11.482Z,7.37
2019-06-08T21:33:14.560Z,6.55
2019-06-08T21:38:23.710Z,9.30
2019-06-08T21:43:22.626Z,7.70
2019-06-08T21:48:27.505Z,5.58
2019-06-08T21:53:30.764Z,7.90
2019-06-08T21:58:33.964Z,7.10
2019-06-08T22:03:38.073Z,5.75
2019-06-08T22:08:41.354Z,6.10
2019-06-08T22:13:44.477Z,6.95
2019-06-08T22:18:47.622Z,11.40
2019-06-08T22:23:51.835Z,8.08
2019-06-08T22:28:55.423Z,6.65
2019-06-08T22:34:00.777Z,7.62
2019-06-08T22:39:07.862Z,9.20
2019-06-08T22:44:10.314Z,8.03
2019-06-08T22:49:15.339Z,7.28
2019-06-08T22:54:18.371Z,7.05
2019-06-08T22:59:21.494Z,6.90
2019-06-08T23:04:24.566Z,7.65
2019-06-08T23:09:28.366Z,6.53
2019-06-08T23:14:31.819Z,5.33
2019-06-08T23:19:37.240Z,6.70
2019-06-08T23:24:39.914Z,4.83
2019-06-08T23:29:42.927Z,6.28
2019-06-08T23:34:47.813Z,4.20
2019-06-08T23:39:51.086Z,7.33
2019-06-08T23:44:54.568Z,6.25
2019-06-08T23:49:59.525Z,7.33
2019-06-08T23:55:03.792Z,5.28
